Time;durP1;ratioP1;P1;durP2;ratioP2;P2;SDS_P1;SDS_P2;PMS_P1;PMS_P2;Temp;Humidity;BMP_temperature;BMP_pressure;BME280_temperature;BME280_humidity;BME280_pressure;Samples;Min_cycle;Max_cycle;Signal;HPM_P1;HPM_P2
2022/04/09 00:00:16;;;;;;;23.48;3.95;;;;;;;-146.64;100.00;95486.84;5007079;28;20084;-86
2022/04/09 00:02:41;;;;;;;20.75;3.22;;;;;;;-146.64;100.00;94955.53;5006189;28;20038;-86
2022/04/09 00:05:09;;;;;;;21.83;3.72;;;;;;;-146.64;100.00;93627.50;4985148;28;20038;-85
2022/04/09 00:07:35;;;;;;;27.00;3.97;;;;;;;-146.64;100.00;91503.59;4999396;28;20041;-85
2022/04/09 00:10:00;;;;;;;28.38;3.78;;;;;;;-146.64;100.00;88585.03;5003756;28;20022;-85
2022/04/09 00:12:26;;;;;;;25.95;3.10;;;;;;;-146.64;100.00;88319.81;5015391;28;20076;-85
2022/04/09 00:14:51;;;;;;;25.10;3.17;;;;;;;-146.64;100.00;86463.78;5009141;28;20025;-85
2022/04/09 00:17:17;;;;;;;18.65;3.03;;;;;;;-146.64;100.00;85403.56;5008739;28;20045;-85
2022/04/09 00:19:43;;;;;;;28.67;3.60;;;;;;;-146.64;100.00;84873.56;5022146;28;20368;-83
2022/04/09 00:22:08;;;;;;;19.63;3.15;;;;;;;-146.64;100.00;87259.13;5003954;28;20268;-85
2022/04/09 00:24:33;;;;;;;24.02;4.18;;;;;;;-146.64;100.00;89380.81;5021751;28;20507;-85
2022/04/09 00:26:59;;;;;;;20.58;3.67;;;;;;;-146.64;100.00;87524.28;5008407;28;20048;-85
2022/04/09 00:29:24;;;;;;;27.73;3.97;;;;;;;-146.64;100.00;90442.06;4993392;28;20077;-85
2022/04/09 00:31:50;;;;;;;20.52;3.70;;;;;;;-146.64;100.00;89911.41;5017160;28;20059;-85
2022/04/09 00:34:15;;;;;;;24.77;3.33;;;;;;;-146.64;100.00;87259.13;5010317;28;20034;-85
2022/04/09 00:36:41;;;;;;;24.42;3.30;;;;;;;-146.64;100.00;86728.88;5007343;28;20037;-85
2022/04/09 00:39:07;;;;;;;25.80;4.00;;;;;;;-146.64;100.00;86994.00;5006062;28;20419;-85
2022/04/09 00:41:32;;;;;;;12.95;3.20;;;;;;;-146.64;100.00;85933.66;5002510;28;20029;-85
2022/04/09 00:43:58;;;;;;;19.38;3.38;;;;;;;-146.64;100.00;88319.81;5024649;28;20477;-85
2022/04/09 00:46:24;;;;;;;18.17;3.97;;;;;;;-146.64;100.00;89380.81;5000123;28;20044;-86
2022/04/09 00:48:50;;;;;;;20.15;3.10;;;;;;;-146.64;100.00;90707.41;5025605;28;20030;-85
2022/04/09 00:51:15;;;;;;;24.02;3.13;;;;;;;-146.64;100.00;91238.19;5015680;28;20034;-85
2022/04/09 00:53:42;;;;;;;17.80;3.00;;;;;;;-146.64;100.00;91503.59;5013148;28;20041;-85
2022/04/09 00:56:21;;;;;;;;;;;;;;;-146.64;100.00;93361.97;4991036;28;20040;-85
2022/04/09 00:58:56;;;;;;;21.67;2.90;;;;;;;-146.64;100.00;93627.50;5009040;28;19919;-85
2022/04/09 01:01:26;;;;;;;32.33;3.92;;;;;;;-146.64;100.00;93627.50;5015578;28;20479;-84
2022/04/09 01:03:52;;;;;;;18.70;3.22;;;;;;;-146.64;100.00;89115.53;5006870;28;20041;-84
2022/04/09 01:06:17;;;;;;;14.98;2.65;;;;;;;-146.64;100.00;83284.00;5036813;28;20024;-83
2022/04/09 01:08:43;;;;;;;27.30;2.95;;;;;;;-146.64;100.00;77196.41;5004028;28;20026;-84
2022/04/09 01:11:08;;;;;;;17.80;2.90;;;;;;;-146.64;100.00;76931.94;5001459;28;20040;-84
2022/04/09 01:13:37;;;;;;;15.43;3.47;;;;;;;-146.64;100.00;76667.50;5003046;28;20022;-83
2022/04/09 01:16:02;;;;;;;20.25;2.95;;;;;;;-146.64;100.00;70589.97;5028744;28;20104;-83
2022/04/09 01:18:30;;;;;;;23.90;3.00;;;;;;;-146.64;100.00;69006.03;4985112;28;20025;-83
2022/04/09 01:21:00;;;;;;;23.17;2.72;;;;;;;-146.64;100.00;63730.81;5020837;28;20025;-84
2022/04/09 01:23:26;;;;;;;24.42;3.28;;;;;;;-146.64;100.00;63467.22;5021441;28;20022;-84
2022/04/09 01:25:51;;;;;;;13.50;3.35;;;;;;;-146.64;100.00;66895.09;5016176;28;20053;-83
2022/04/09 01:28:17;;;;;;;16.83;4.20;;;;;;;-146.64;100.00;73495.47;5018205;28;20054;-84
2022/04/09 01:30:42;;;;;;;17.70;3.70;;;;;;;-146.64;100.00;75081.16;5018654;28;20076;-83
2022/04/09 01:33:14;;;;;;;19.05;2.88;;;;;;;-146.64;100.00;76931.94;4985517;28;20041;-83
2022/04/09 01:35:39;;;;;;;16.60;2.90;;;;;;;-146.64;100.00;75874.25;5013637;28;20045;-83
2022/04/09 01:38:05;;;;;;;29.20;4.57;;;;;;;-146.64;100.00;74552.53;5004084;28;20021;-84
2022/04/09 01:40:30;;;;;;;22.33;2.65;;;;;;;-146.64;100.00;78254.47;5001144;28;20030;-84
2022/04/09 01:42:55;;;;;;;21.85;3.05;;;;;;;-146.64;100.00;81165.53;5017855;28;20037;-84
2022/04/09 01:45:21;;;;;;;32.33;3.80;;;;;;;-146.64;100.00;81695.03;4990225;28;20042;-84
2022/04/09 01:47:46;;;;;;;17.95;2.85;;;;;;;-146.64;100.00;84608.59;5005946;28;20030;-84
2022/04/09 01:50:12;;;;;;;21.27;2.90;;;;;;;-146.64;100.00;86198.72;5004139;28;20183;-84
2022/04/09 01:52:37;;;;;;;28.08;3.33;;;;;;;-146.64;100.00;87259.13;5021612;28;20037;-83
2022/04/09 01:55:05;;;;;;;27.60;3.53;;;;;;;-146.64;100.00;88054.63;5000047;28;20097;-83
2022/04/09 01:57:33;;;;;;;19.02;2.75;;;;;;;-146.64;100.00;90442.06;5018530;28;20209;-84
2022/04/09 01:59:58;;;;;;;22.85;3.17;;;;;;;-146.64;100.00;91503.59;4999733;28;20044;-84
2022/04/09 02:02:24;;;;;;;28.67;5.13;;;;;;;-146.64;100.00;92830.91;5010782;28;20026;-84
2022/04/09 02:04:49;;;;;;;26.05;3.92;;;;;;;-146.64;100.00;93361.97;4998510;28;20029;-84
2022/04/09 02:07:17;;;;;;;27.52;3.30;;;;;;;-146.64;100.00;93096.44;5003989;28;20369;-84
2022/04/09 02:09:42;;;;;;;23.10;3.72;;;;;;;-146.64;100.00;92034.47;5004196;28;20026;-83
2022/04/09 02:12:08;;;;;;;20.85;3.65;;;;;;;-146.64;100.00;86198.72;5000065;28;20061;-83
2022/04/09 02:14:34;;;;;;;18.88;3.33;;;;;;;-146.64;100.00;81959.81;5003960;28;20064;-83
2022/04/09 02:17:00;;;;;;;18.70;3.05;;;;;;;-146.64;100.00;77196.41;5003834;28;20086;-84
2022/04/09 02:19:26;;;;;;;;;;;;;;;-146.64;100.00;75081.16;5021303;28;20017;-83
2022/04/09 02:21:51;;;;;;;14.27;2.33;;;;;;;-146.64;100.00;68214.31;5017967;28;19932;-83
2022/04/09 02:24:16;;;;;;;15.57;2.90;;;;;;;-146.64;100.00;66103.78;5017586;28;20030;-84
2022/04/09 02:26:42;;;;;;;14.98;2.13;;;;;;;-146.64;100.00;63994.41;5002913;28;20037;-83
2022/04/09 02:29:07;;;;;;;18.63;2.95;;;;;;;-146.64;100.00;64521.66;5019972;28;20092;-84
2022/04/09 02:31:33;;;;;;;13.55;3.03;;;;;;;-146.64;100.00;65840.06;5015820;28;20033;-84
2022/04/09 02:33:59;;;;;;;10.45;2.10;;;;;;;-146.64;100.00;63203.69;5017669;28;20030;-84
2022/04/09 02:36:24;;;;;;;17.17;3.17;;;;;;;-146.64;100.00;67158.91;5003815;28;20041;-84
2022/04/09 02:38:50;;;;;;;16.17;2.28;;;;;;;-146.64;100.00;65840.06;5001650;28;20548;-84
2022/04/09 02:41:16;;;;;;;17.30;2.67;;;;;;;-146.64;100.00;65576.34;4993377;28;20056;-84
2022/04/09 02:43:41;;;;;;;16.60;3.17;;;;;;;-146.64;100.00;71910.38;5001584;28;20037;-84
2022/04/09 02:46:07;;;;;;;17.75;2.80;;;;;;;-146.64;100.00;75345.50;4992614;28;20026;-84
2022/04/09 02:48:32;;;;;;;16.42;2.25;;;;;;;-146.64;100.00;79842.06;5018819;28;20040;-84
2022/04/09 02:50:57;;;;;;;12.63;2.22;;;;;;;-146.64;100.00;83284.00;5030724;28;20030;-84
2022/04/09 02:53:23;;;;;;;25.50;3.38;;;;;;;-146.64;100.00;84873.56;5011284;28;20033;-84
2022/04/09 02:55:48;;;;;;;15.85;2.90;;;;;;;-146.64;100.00;87259.13;5008898;28;20045;-83
2022/04/09 02:58:13;;;;;;;13.20;2.40;;;;;;;-146.64;100.00;89115.53;5017708;28;20053;-84
2022/04/09 03:00:39;;;;;;;9.63;2.03;;;;;;;-146.64;100.00;90176.72;5007953;28;20026;-84
2022/04/09 03:03:05;;;;;;;11.45;2.25;;;;;;;-146.64;100.00;89911.41;5036317;28;20477;-84
2022/04/09 03:05:30;;;;;;;13.20;2.53;;;;;;;-146.64;100.00;88850.28;4999336;28;20108;-83
2022/04/09 03:07:57;;;;;;;15.65;2.50;;;;;;;-146.64;100.00;90442.06;4999892;28;20042;-84
2022/04/09 03:10:22;;;;;;;13.45;1.80;;;;;;;-146.64;100.00;90707.41;5000559;28;20436;-84
2022/04/09 03:12:48;;;;;;;17.40;2.50;;;;;;;-146.64;100.00;90972.78;4998057;28;20057;-83
2022/04/09 03:15:14;;;;;;;11.10;2.80;;;;;;;-146.64;100.00;91238.19;5011782;28;20029;-84
2022/04/09 03:17:40;;;;;;;14.75;2.03;;;;;;;-146.64;100.00;91503.59;5004889;28;20109;-84
2022/04/09 03:20:06;;;;;;;9.93;2.67;;;;;;;-146.64;100.00;89646.09;4995723;28;20053;-84
2022/04/09 03:22:31;;;;;;;14.60;2.90;;;;;;;-146.64;100.00;90442.06;5010277;28;20042;-84
2022/04/09 03:24:58;;;;;;;10.18;2.20;;;;;;;-146.64;100.00;89646.09;4992086;28;20034;-84
2022/04/09 03:27:24;;;;;;;17.20;2.53;;;;;;;-146.64;100.00;89911.41;5002273;28;20053;-84
2022/04/09 03:29:49;;;;;;;20.02;2.20;;;;;;;-146.64;100.00;90972.78;5006741;28;20287;-84
2022/04/09 03:32:14;;;;;;;19.90;2.63;;;;;;;-146.64;100.00;91503.59;5021601;28;20450;-83
2022/04/09 03:34:40;;;;;;;15.93;2.17;;;;;;;-146.64;100.00;91769.03;5003344;28;20034;-83
2022/04/09 03:37:05;;;;;;;19.92;3.25;;;;;;;-146.64;100.00;90972.78;5008215;28;20029;-84
2022/04/09 03:39:31;;;;;;;13.77;2.42;;;;;;;-146.64;100.00;91238.19;5008989;28;20041;-83
2022/04/09 03:41:56;;;;;;;13.27;2.83;;;;;;;-146.64;100.00;89380.81;5007582;28;20061;-84
2022/04/09 03:44:22;;;;;;;12.98;2.22;;;;;;;-146.64;100.00;87524.28;5015357;28;20033;-84
2022/04/09 03:46:47;;;;;;;15.85;2.40;;;;;;;-146.64;100.00;84608.59;5018115;28;20026;-84
2022/04/09 03:49:13;;;;;;;11.30;2.63;;;;;;;-146.64;100.00;81430.28;5005165;28;20022;-84
2022/04/09 03:51:38;;;;;;;17.00;3.20;;;;;;;-146.64;100.00;80371.41;5046412;28;20037;-84
2022/04/09 03:54:04;;;;;;;22.52;2.95;;;;;;;-146.64;100.00;80900.81;5004723;28;20037;-84
2022/04/09 03:56:29;;;;;;;14.43;2.60;;;;;;;-146.64;100.00;80900.81;5006833;28;20041;-84
2022/04/09 03:58:55;;;;;;;10.88;2.25;;;;;;;-146.64;100.00;79312.78;5023090;28;20033;-83
2022/04/09 04:01:24;;;;;;;15.77;2.67;;;;;;;-146.64;100.00;77725.41;4999454;28;20323;-83
2022/04/09 04:03:51;;;;;;;22.45;2.83;;;;;;;-146.64;100.00;79048.19;4999573;28;20057;-83
2022/04/09 04:06:16;;;;;;;16.40;2.83;;;;;;;-146.64;100.00;80106.72;5003323;28;20025;-84
2022/04/09 04:08:41;;;;;;;17.10;2.30;;;;;;;-146.64;100.00;81695.03;5023751;28;20052;-83
2022/04/09 04:11:10;;;;;;;16.83;2.65;;;;;;;-146.64;100.00;82754.28;5006587;28;20037;-84
2022/04/09 04:13:38;;;;;;;20.38;2.38;;;;;;;-146.64;100.00;82754.28;5008489;28;20046;-83
2022/04/09 04:16:05;;;;;;;21.20;2.72;;;;;;;-146.64;100.00;81430.28;5024732;28;20391;-83
2022/04/09 04:18:30;;;;;;;19.88;2.95;;;;;;;-146.64;100.00;82224.63;5023001;28;20057;-84
2022/04/09 04:20:56;;;;;;;12.25;2.90;;;;;;;-146.64;100.00;83548.88;5002203;28;20041;-83
2022/04/09 04:23:23;;;;;;;18.15;2.80;;;;;;;-146.64;100.00;83284.00;5019892;28;20104;-83
2022/04/09 04:25:48;;;;;;;17.23;2.83;;;;;;;-146.64;100.00;82754.28;5023785;28;20045;-83
2022/04/09 04:28:14;;;;;;;21.85;3.20;;;;;;;-146.64;100.00;82489.44;5006493;28;20050;-84
2022/04/09 04:30:39;;;;;;;17.88;2.65;;;;;;;-146.64;100.00;81959.81;5023246;28;20061;-84
2022/04/09 04:33:05;;;;;;;15.85;2.60;;;;;;;-146.64;100.00;80900.81;5005843;28;20057;-83
2022/04/09 04:35:30;;;;;;;21.15;3.20;;;;;;;-146.64;100.00;80371.41;5006355;28;20065;-83
2022/04/09 04:37:55;;;;;;;21.05;3.05;;;;;;;-146.64;100.00;81165.53;4988145;28;20037;-84
2022/04/09 04:40:21;;;;;;;23.50;3.10;;;;;;;-146.64;100.00;81430.28;5033788;28;20026;-84
2022/04/09 04:42:48;;;;;;;20.50;3.10;;;;;;;-146.64;100.00;82489.44;5005912;28;20041;-84
2022/04/09 04:45:15;;;;;;;18.90;3.00;;;;;;;-146.64;100.00;79312.78;5034243;28;20080;-85
2022/04/09 04:47:48;;;;;;;13.90;2.20;;;;;;;-146.64;100.00;77989.94;5007885;28;20022;-83
2022/04/09 04:50:15;;;;;;;23.00;3.10;;;;;;;-146.64;100.00;77196.41;5038808;28;20018;-83
2022/04/09 04:52:41;;;;;;;21.25;2.95;;;;;;;-146.64;100.00;76403.06;4999275;28;20033;-84
2022/04/09 04:55:10;;;;;;;24.90;3.55;;;;;;;-146.64;100.00;75609.88;5004988;28;20025;-84
2022/04/09 04:57:40;;;;;;;23.23;3.30;;;;;;;-146.64;100.00;77725.41;5040852;28;20037;-83
2022/04/09 05:00:06;;;;;;;15.20;2.97;;;;;;;-146.64;100.00;77196.41;5016033;28;20041;-83
2022/04/09 05:02:31;;;;;;;13.17;2.93;;;;;;;-146.64;100.00;79312.78;5022976;28;20030;-84
2022/04/09 05:04:57;;;;;;;14.57;2.83;;;;;;;-146.64;100.00;82489.44;4986005;28;20041;-84
2022/04/09 05:07:23;;;;;;;25.10;2.63;;;;;;;-146.64;100.00;85933.66;5009534;28;20087;-84
2022/04/09 05:09:48;;;;;;;21.23;3.40;;;;;;;-146.64;100.00;88585.03;5031628;28;20029;-84
2022/04/09 05:12:13;;;;;;;25.52;4.75;;;;;;;-146.64;100.00;90442.06;5022741;28;20038;-83
2022/04/09 05:14:39;;;;;;;17.50;3.35;;;;;;;-146.64;100.00;92565.41;5013508;28;20025;-83
2022/04/09 05:17:05;;;;;;;17.80;3.47;;;;;;;-146.64;100.00;94689.88;5020001;28;20436;-83
2022/04/09 05:19:30;;;;;;;25.33;7.45;;;;;;;-146.64;100.00;96815.47;5037007;28;20018;-84
2022/04/09 05:21:55;;;;;;;26.45;13.45;;;;;;;-146.64;100.00;98144.53;5022961;28;20049;-83
2022/04/09 05:24:20;;;;;;;23.25;8.35;;;;;;;-146.64;100.00;99208.09;5018620;28;20034;-84
2022/04/09 05:26:46;;;;;;;16.92;4.60;;;;;;;-146.64;100.00;100005.94;5025725;28;20022;-83
2022/04/09 05:29:12;;;;;;;19.73;3.95;;;;;;;-146.64;100.00;99739.97;5023441;28;20029;-84
2022/04/09 05:31:37;;;;;;;24.13;3.03;;;;;;;-146.64;100.00;98410.41;5020952;28;20065;-83
2022/04/09 05:34:02;;;;;;;25.17;4.18;;;;;;;-146.64;100.00;97081.25;5003896;28;20032;-83
2022/04/09 05:36:28;;;;;;;21.27;3.08;;;;;;;-146.64;100.00;96283.97;5016591;28;20088;-83
2022/04/09 05:38:53;;;;;;;28.38;3.45;;;;;;;-146.64;100.00;95486.84;5004684;28;20046;-83
2022/04/09 05:41:18;;;;;;;17.92;4.20;;;;;;;-146.64;100.00;93893.06;5021409;28;20033;-84
2022/04/09 05:43:44;;;;;;;23.73;3.20;;;;;;;-146.64;100.00;93893.06;5006473;28;20028;-84
2022/04/09 05:46:09;;;;;;;18.42;4.57;;;;;;;-146.64;100.00;95486.84;5012877;28;20044;-84
2022/04/09 05:48:35;;;;;;;15.52;3.25;;;;;;;-146.64;100.00;95752.53;5004725;28;20056;-84
2022/04/09 05:51:00;;;;;;;28.98;3.63;;;;;;;-146.64;100.00;96549.72;4996361;28;20144;-84
2022/04/09 05:53:26;;;;;;;25.80;3.35;;;;;;;-146.64;100.00;96549.72;5019476;28;20049;-86
2022/04/09 05:55:51;;;;;;;27.63;4.57;;;;;;;-146.64;100.00;96815.47;5004006;28;20040;-84
2022/04/09 05:58:17;;;;;;;25.95;3.53;;;;;;;-146.64;100.00;97347.03;5004155;28;20026;-84
2022/04/09 06:00:42;;;;;;;23.25;4.30;;;;;;;-146.64;100.00;97347.03;5023900;28;20029;-84
2022/04/09 06:03:07;;;;;;;25.50;3.80;;;;;;;-146.64;100.00;96815.47;5002545;28;20037;-84
2022/04/09 06:05:33;;;;;;;21.88;4.15;;;;;;;-146.64;100.00;96283.97;4997569;28;20354;-83
2022/04/09 06:07:58;;;;;;;18.02;3.15;;;;;;;-146.64;100.00;95221.19;4991558;28;20033;-84
2022/04/09 06:10:23;;;;;;;18.92;3.17;;;;;;;-146.64;100.00;94955.53;5033968;28;20026;-83
2022/04/09 06:12:49;;;;;;;27.85;3.05;;;;;;;-146.64;100.00;92830.91;5008378;28;20045;-84
2022/04/09 06:15:14;;;;;;;18.63;3.75;;;;;;;-146.64;100.00;90972.78;5021926;28;20026;-84
2022/04/09 06:17:40;;;;;;;17.35;2.78;;;;;;;-146.64;100.00;89646.09;5006333;28;20036;-85
2022/04/09 06:20:09;;;;;;;15.13;3.33;;;;;;;-146.64;100.00;88319.81;5004707;28;20021;-84
2022/04/09 06:22:34;;;;;;;20.40;2.88;;;;;;;-146.64;100.00;87259.13;5001962;28;20041;-84
2022/04/09 06:25:00;;;;;;;24.35;4.13;;;;;;;-146.64;100.00;84078.72;5002829;28;20026;-84
2022/04/09 06:27:26;;;;;;;12.85;2.80;;;;;;;-146.64;100.00;84078.72;5003468;28;20041;-85
2022/04/09 06:29:51;;;;;;;21.55;3.28;;;;;;;-146.64;100.00;84078.72;4998919;28;20121;-84
2022/04/09 06:32:17;;;;;;;18.52;3.80;;;;;;;-146.64;100.00;83813.78;5020501;28;20418;-84
2022/04/09 06:34:42;;;;;;;17.88;3.83;;;;;;;-146.64;100.00;77989.94;5025962;28;20117;-84
2022/04/09 06:37:08;;;;;;;19.30;4.68;;;;;;;-146.64;100.00;71646.25;5019689;28;20052;-84
2022/04/09 06:39:34;;;;;;;18.98;2.88;;;;;;;-146.64;100.00;69533.94;5016806;28;20026;-83
2022/04/09 06:41:59;;;;;;;17.95;3.83;;;;;;;-146.64;100.00;65576.34;5001506;28;20057;-83
2022/04/09 06:44:25;;;;;;;17.20;2.75;;;;;;;-146.64;100.00;60832.41;4997754;28;20030;-83
2022/04/09 06:46:50;;;;;;;22.42;4.03;;;;;;;-146.64;100.00;53681.94;4992837;28;20022;-83
2022/04/09 06:49:16;;;;;;;18.38;3.22;;;;;;;-146.64;100.00;51176.78;4990933;28;20442;-83
2022/04/09 06:51:42;;;;;;;15.93;3.05;;;;;;;-146.64;100.00;50068.44;5009922;28;20128;-84
2022/04/09 06:54:07;;;;;;;16.40;3.50;;;;;;;-146.64;100.00;46933.94;4998736;28;20032;-83
2022/04/09 06:56:33;;;;;;;22.10;3.35;;;;;;;-146.64;100.00;43820.38;5013587;28;20030;-83
2022/04/09 06:59:00;;;;;;;16.95;2.95;;;;;;;-146.64;100.00;41954.22;4996119;28;20053;-84
2022/04/09 07:01:26;;;;;;;17.25;3.55;;;;;;;-146.64;100.00;42159.03;5015414;28;20056;-84
2022/04/09 07:03:52;;;;;;;15.77;2.60;;;;;;;-146.64;100.00;41262.06;4999910;28;20088;-83
2022/04/09 07:06:17;;;;;;;25.27;3.55;;;;;;;-146.64;100.00;39884.28;4998906;28;20013;-84
2022/04/09 07:08:43;;;;;;;17.17;3.28;;;;;;;-146.64;100.00;39718.47;4996160;28;20429;-84
2022/04/09 07:11:08;;;;;;;25.20;4.55;;;;;;;-146.64;100.00;39771.69;4994403;28;20021;-83
2022/04/09 07:13:33;;;;;;;19.17;3.92;;;;;;;-146.64;100.00;40103.28;4999161;28;20033;-83
2022/04/09 07:15:59;;;;;;;17.45;3.38;;;;;;;-146.64;100.00;40193.38;5014124;28;20441;-83
2022/04/09 07:18:24;;;;;;;17.00;3.65;;;;;;;-146.64;100.00;40140.13;4998082;28;20014;-83
2022/04/09 07:20:49;;;;;;;17.10;3.50;;;;;;;-146.64;100.00;39812.63;5012836;28;22282;-83
2022/04/09 07:23:15;;;;;;;11.75;2.75;;;;;;;-146.64;100.00;39517.91;4992099;28;20029;-83
2022/04/09 07:25:42;;;;;;;10.15;3.00;;;;;;;-146.64;100.00;39450.34;4995428;28;20038;-83
2022/04/09 07:28:07;;;;;;;10.98;2.70;;;;;;;-146.64;100.00;39476.97;4996379;28;20099;-83
2022/04/09 07:30:33;;;;;;;7.90;2.65;;;;;;;-146.64;100.00;39403.28;4995913;28;20124;-83
2022/04/09 07:32:58;;;;;;;12.50;2.28;;;;;;;-146.64;100.00;39307.09;5016377;28;20516;-84
2022/04/09 07:35:24;;;;;;;12.63;2.60;;;;;;;-146.64;100.00;39300.94;4991132;28;20072;-84
2022/04/09 07:37:51;;;;;;;9.80;2.93;;;;;;;-146.64;100.00;39229.31;4991634;28;20250;-84
2022/04/09 07:40:19;;;;;;;11.55;2.70;;;;;;;-146.64;100.00;39266.16;4994348;28;20022;-85
2022/04/09 07:42:45;;;;;;;12.50;3.03;;;;;;;-146.64;100.00;39251.84;4996137;28;20029;-83
2022/04/09 07:45:12;;;;;;;15.93;2.70;;;;;;;-146.64;100.00;39300.94;4999172;28;20018;-83
2022/04/09 07:47:37;;;;;;;17.50;2.95;;;;;;;-146.64;100.00;39411.47;4999636;28;20034;-83
2022/04/09 07:50:06;;;;;;;17.90;3.85;;;;;;;-146.64;100.00;39448.31;5012922;28;20045;-84
2022/04/09 07:52:31;;;;;;;12.13;3.05;;;;;;;-146.64;100.00;39397.13;5011184;28;20036;-84
2022/04/09 07:54:57;;;;;;;16.02;2.70;;;;;;;-146.64;100.00;39354.16;4996632;28;20060;-84
2022/04/09 07:57:24;;;;;;;10.48;2.38;;;;;;;-146.64;100.00;39358.25;5019823;28;20030;-84
2022/04/09 08:00:30;;;;;;;15.25;3.15;;;;;;;-146.64;100.00;39333.69;5000784;28;20026;-84
2022/04/09 08:02:56;;;;;;;14.25;2.75;;;;;;;-146.64;100.00;39264.09;5016987;28;20037;-84
2022/04/09 08:05:21;;;;;;;18.40;4.28;;;;;;;-146.64;100.00;39282.53;4996818;28;20120;-84
2022/04/09 08:07:47;;;;;;;11.93;2.70;;;;;;;-146.64;100.00;39237.50;5010610;28;20040;-84
2022/04/09 08:10:13;;;;;;;12.80;2.83;;;;;;;-146.64;100.00;39274.34;4999747;28;20549;-84
2022/04/09 08:12:39;;;;;;;10.50;2.63;;;;;;;-146.64;100.00;39339.84;5004279;28;20312;-83
2022/04/09 08:15:05;;;;;;;16.83;2.20;;;;;;;-146.64;100.00;39427.84;5015442;28;20084;-83
2022/04/09 08:17:31;;;;;;;5.20;1.50;;;;;;;-146.64;100.00;39706.19;4997701;28;20817;-83
2022/04/09 08:19:58;;;;;;;8.35;2.28;;;;;;;-146.64;100.00;39804.44;5028457;28;20104;-83
2022/04/09 08:22:25;;;;;;;7.90;2.00;;;;;;;-146.64;100.00;39888.38;5013066;28;20057;-83
2022/04/09 08:24:50;;;;;;;6.20;1.55;;;;;;;-146.64;100.00;39998.91;5001252;28;20030;-83
2022/04/09 08:27:15;;;;;;;2.75;1.20;;;;;;;-146.64;100.00;39917.03;4998667;28;20042;-83
2022/04/09 08:29:41;;;;;;;10.25;1.67;;;;;;;-146.64;100.00;39984.56;5000203;28;20030;-83
2022/04/09 08:32:06;;;;;;;11.80;2.25;;;;;;;-146.64;100.00;39935.44;5016261;28;20055;-83
2022/04/09 08:34:36;;;;;;;6.22;1.60;;;;;;;-146.64;100.00;39824.91;5017861;28;20036;-83
2022/04/09 08:37:07;;;;;;;7.65;2.38;;;;;;;-146.64;100.00;39757.38;5028841;28;20040;-83
2022/04/09 08:39:36;;;;;;;9.43;2.42;;;;;;;-146.64;100.00;39589.53;5012911;28;20030;-84
2022/04/09 08:42:03;;;;;;;14.35;2.30;;;;;;;-146.64;100.00;39407.38;5005050;28;20109;-83
2022/04/09 08:44:29;;;;;;;11.80;1.70;;;;;;;-146.64;100.00;39415.56;5000593;28;20092;-86
2022/04/09 08:46:55;;;;;;;7.90;2.05;;;;;;;-146.64;100.00;39468.78;4999747;28;20068;-86
2022/04/09 08:49:21;;;;;;;9.82;1.95;;;;;;;-146.64;100.00;39407.38;5002077;28;20021;-86
2022/04/09 08:51:46;;;;;;;13.00;2.40;;;;;;;-146.64;100.00;39343.94;5002423;28;20100;-86
2022/04/09 08:54:11;;;;;;;13.07;2.05;;;;;;;-146.64;100.00;39243.66;5008675;28;20048;-85
2022/04/09 08:56:37;;;;;;;8.57;1.95;;;;;;;-146.64;100.00;39219.09;5012667;28;20022;-85
2022/04/09 08:59:03;;;;;;;11.52;2.35;;;;;;;-146.64;100.00;39276.38;5026734;28;20036;-85
2022/04/09 09:01:29;;;;;;;6.60;2.30;;;;;;;-146.64;100.00;39235.47;5021095;28;20030;-86
2022/04/09 09:03:55;;;;;;;12.73;2.33;;;;;;;-146.64;93.68;39092.19;5018987;28;20040;-86
2022/04/09 09:06:32;;;;;;;8.57;1.77;;;;;;;-146.64;88.46;39112.66;5017027;28;20030;-85
2022/04/09 09:08:59;;;;;;;11.27;1.95;;;;;;;-146.64;89.55;38959.19;5021913;28;20540;-85
2022/04/09 09:11:26;;;;;;;;;;;;;;;-146.64;92.34;39088.09;5000221;28;20026;-85
2022/04/09 09:13:53;;;;;;;8.95;2.65;;;;;;;-146.64;92.44;39034.91;5002402;28;19917;-86
2022/04/09 09:16:23;;;;;;;;;;;;;;;-146.64;87.15;39049.22;5012262;28;20049;-85
2022/04/09 09:18:54;;;;;;;11.18;2.45;;;;;;;-146.64;89.84;39010.34;5019697;28;19909;-85
2022/04/09 09:21:23;;;;;;;10.95;2.63;;;;;;;-146.64;93.52;39014.44;5001618;28;20026;-86
2022/04/09 09:23:49;;;;;;;8.88;2.25;;;;;;;-146.64;86.87;38979.66;5001823;28;20025;-86
2022/04/09 09:26:21;;;;;;;10.63;2.47;;;;;;;-146.64;83.61;38936.66;5010278;28;20390;-85
2022/04/09 09:28:55;;;;;;;12.35;2.00;;;;;;;-146.64;79.71;39043.09;4997695;28;20044;-84
2022/04/09 09:31:41;;;;;;;9.27;2.33;;;;;;;-146.64;83.68;38940.75;5018963;28;20452;-85
2022/04/09 09:34:14;;;;;;;9.45;2.08;;;;;;;-146.64;79.70;38895.75;5000538;28;20573;-85
2022/04/09 09:36:43;;;;;;;9.35;1.88;;;;;;;-146.64;70.78;38858.91;4997073;28;20459;-86
2022/04/09 09:39:11;;;;;;;8.55;1.52;;;;;;;-146.64;66.97;38854.81;5001863;28;20565;-84
2022/04/09 09:41:51;;;;;;;9.80;2.50;;;;;;;-146.64;70.40;38826.16;5015024;28;20026;-85
2022/04/09 09:44:30;;;;;;;8.82;2.55;;;;;;;-146.64;69.99;38795.47;5017445;28;20393;-85
2022/04/09 09:47:16;;;;;;;9.05;1.38;;;;;;;-146.64;70.26;38779.09;4994940;28;20100;-86
2022/04/09 09:49:55;;;;;;;7.13;2.00;;;;;;;-146.64;69.24;38830.25;4996112;28;20109;-84
2022/04/09 09:52:31;;;;;;;7.57;2.60;;;;;;;-146.64;66.81;38799.56;4998973;28;20026;-85
2022/04/09 09:55:04;;;;;;;7.95;2.17;;;;;;;-146.64;64.91;38822.06;4976625;28;20084;-85
2022/04/09 09:57:31;;;;;;;10.05;2.47;;;;;;;-146.64;68.53;38727.94;5000037;28;20454;-85
2022/04/09 09:59:57;;;;;;;;;;;;;;;-146.64;71.39;38817.97;4976549;28;20093;-84
2022/04/09 10:02:24;;;;;;;4.93;1.58;;;;;;;-146.64;68.97;38822.06;4996002;28;19971;-84
2022/04/09 10:04:50;;;;;;;;;;;;;;;-146.64;69.84;38815.94;4985219;28;20402;-83
2022/04/09 10:07:16;;;;;;;9.40;2.28;;;;;;;-146.64;70.65;38889.59;4967678;28;19940;-83
2022/04/09 10:09:42;;;;;;;6.78;1.77;;;;;;;-146.64;69.08;38781.16;4987305;28;20141;-83
2022/04/09 10:12:17;;;;;;;15.10;2.38;;;;;;;-146.64;67.64;38830.25;4993189;28;20046;-84
2022/04/09 10:14:44;;;;;;;5.60;2.40;;;;;;;-146.64;69.20;38838.44;4986468;28;20097;-83
2022/04/09 10:17:10;;;;;;;11.68;1.90;;;;;;;-146.64;66.25;38777.06;4984578;28;20050;-84
2022/04/09 10:19:41;;;;;;;6.88;1.77;;;;;;;-146.64;63.27;38873.22;4991933;28;20041;-84
2022/04/09 10:22:06;;;;;;;7.38;2.03;;;;;;;-146.64;62.10;38711.56;4994902;28;20026;-84
2022/04/09 10:24:32;;;;;;;8.03;1.80;;;;;;;-146.64;62.26;38766.81;5003966;28;20033;-83
2022/04/09 10:26:59;;;;;;;6.13;1.57;;;;;;;-146.64;58.93;38699.28;4989175;28;20061;-83
2022/04/09 10:29:26;;;;;;;6.47;2.08;;;;;;;-146.64;59.74;38736.13;5017645;28;20022;-83
2022/04/09 10:31:52;;;;;;;7.30;1.53;;;;;;;-146.64;60.31;38924.41;4985857;28;20464;-84
2022/04/09 10:34:20;;;;;;;7.28;2.15;;;;;;;-146.64;61.67;38928.50;5009495;28;20122;-83
2022/04/09 10:36:45;;;;;;;6.15;1.75;;;;;;;-146.64;61.83;38858.91;4997730;28;20030;-83
2022/04/09 10:39:25;;;;;;;7.80;1.63;;;;;;;-146.64;61.07;38830.25;5019552;28;20033;-83
2022/04/09 10:41:54;;;;;;;9.57;1.60;;;;;;;-146.64;59.88;38787.28;5017782;28;20053;-82
2022/04/09 10:44:44;;;;;;;5.85;1.65;;;;;;;-146.64;58.72;38916.22;4996752;28;20022;-83
2022/04/09 10:47:14;;;;;;;8.95;2.08;;;;;;;-146.64;61.30;38822.06;5025920;28;20109;-83
2022/04/09 10:50:05;;;;;;;5.63;1.45;;;;;;;-146.64;54.96;38955.09;5002440;28;20136;-84
2022/04/09 10:52:37;;;;;;;3.05;1.10;;;;;;;-146.64;52.28;39010.34;5016930;28;20068;-83
2022/04/09 10:55:12;;;;;;;3.35;1.42;;;;;;;-146.64;53.02;38793.44;4997331;28;20018;-83
2022/04/09 10:57:45;;;;;;;8.13;1.90;;;;;;;-146.64;55.09;38752.50;5031840;28;20080;-83
2022/04/09 11:00:23;;;;;;;3.63;1.20;;;;;;;-146.64;52.38;38678.84;4998174;28;20038;-82
2022/04/09 11:03:11;;;;;;;3.33;1.55;;;;;;;-146.64;50.77;38715.66;5009720;28;20429;-82
2022/04/09 11:05:39;;;;;;;7.88;1.50;;;;;;;-146.64;48.35;38633.81;5011942;28;20022;-82